createdAt,value
2023-04-19T00:00:08.503Z,100.00
2023-04-19T00:02:38.160Z,100.00
2023-04-19T00:05:06.876Z,100.00
2023-04-19T00:07:36.405Z,100.00
2023-04-19T00:10:04.849Z,100.00
2023-04-19T00:12:33.084Z,100.00
2023-04-19T00:15:01.453Z,100.00
2023-04-19T00:17:29.784Z,100.00
2023-04-19T00:19:58.196Z,100.00
2023-04-19T00:22:26.896Z,100.00
2023-04-19T00:24:54.927Z,100.00
2023-04-19T00:27:23.313Z,100.00
2023-04-19T00:29:51.394Z,100.00
2023-04-19T00:32:19.476Z,100.00
2023-04-19T00:34:47.494Z,100.00
2023-04-19T00:37:15.810Z,100.00
2023-04-19T00:39:43.895Z,100.00
2023-04-19T00:42:11.867Z,100.00
2023-04-19T00:44:40.738Z,100.00
2023-04-19T00:47:10.446Z,100.00
2023-04-19T00:49:38.450Z,100.00
2023-04-19T00:52:08.032Z,100.00
2023-04-19T00:54:38.590Z,100.00
2023-04-19T00:57:06.987Z,100.00
2023-04-19T00:59:35.592Z,100.00
2023-04-19T01:02:07.613Z,100.00
2023-04-19T01:04:36.217Z,100.00
2023-04-19T01:07:04.380Z,100.00
2023-04-19T01:09:33.431Z,100.00
2023-04-19T01:12:02.317Z,100.00
2023-04-19T01:14:30.630Z,100.00
2023-04-19T01:16:58.745Z,100.00
2023-04-19T01:19:28.510Z,100.00
2023-04-19T01:21:58.467Z,100.00
2023-04-19T01:24:27.146Z,100.00
2023-04-19T01:26:55.156Z,100.00
2023-04-19T01:29:23.224Z,100.00
2023-04-19T01:31:54.076Z,100.00
2023-04-19T01:34:25.148Z,100.00
2023-04-19T01:36:53.174Z,100.00
2023-04-19T01:39:21.909Z,100.00
2023-04-19T01:41:49.926Z,100.00
2023-04-19T01:44:17.945Z,100.00
2023-04-19T01:46:46.018Z,100.00
2023-04-19T01:49:14.146Z,100.00
2023-04-19T01:51:44.213Z,100.00
2023-04-19T01:54:12.212Z,100.00
2023-04-19T01:56:40.268Z,100.00
2023-04-19T01:59:08.479Z,100.00
2023-04-19T02:01:37.434Z,100.00
2023-04-19T02:04:06.764Z,100.00
2023-04-19T02:06:34.940Z,100.00
2023-04-19T02:09:05.863Z,100.00
2023-04-19T02:11:35.232Z,100.00
2023-04-19T02:14:03.475Z,100.00
2023-04-19T02:16:32.363Z,100.00
2023-04-19T02:19:02.408Z,100.00
2023-04-19T02:21:32.038Z,100.00
2023-04-19T02:24:00.241Z,100.00
2023-04-19T02:26:28.309Z,100.00
2023-04-19T02:28:56.389Z,100.00
2023-04-19T02:31:24.419Z,100.00
2023-04-19T02:33:52.472Z,100.00
2023-04-19T02:36:20.550Z,100.00
2023-04-19T02:38:48.872Z,100.00
2023-04-19T02:41:16.961Z,100.00
2023-04-19T02:43:44.964Z,100.00
2023-04-19T02:46:14.668Z,100.00
2023-04-19T02:48:42.744Z,100.00
2023-04-19T02:51:17.686Z,100.00
2023-04-19T02:53:48.848Z,100.00
2023-04-19T02:56:16.958Z,100.00
2023-04-19T02:58:45.501Z,100.00
2023-04-19T03:01:13.595Z,100.00
2023-04-19T03:03:41.924Z,100.00
2023-04-19T03:06:10.732Z,100.00
2023-04-19T03:08:38.852Z,100.00
2023-04-19T03:11:06.982Z,100.00
2023-04-19T03:13:35.063Z,100.00
2023-04-19T03:16:03.336Z,100.00
2023-04-19T03:18:32.795Z,100.00
2023-04-19T03:21:01.423Z,100.00
2023-04-19T03:23:31.792Z,100.00
2023-04-19T03:26:01.253Z,100.00
2023-04-19T03:28:36.985Z,100.00
2023-04-19T03:31:34.537Z,100.00
2023-04-19T03:34:02.625Z,100.00
2023-04-19T03:36:35.670Z,100.00
2023-04-19T03:39:04.355Z,100.00
2023-04-19T03:41:32.457Z,100.00
2023-04-19T03:44:19.426Z,100.00
2023-04-19T03:46:49.032Z,100.00
2023-04-19T03:49:20.547Z,100.00
2023-04-19T03:51:52.485Z,100.00
2023-04-19T03:54:20.559Z,100.00
2023-04-19T03:56:48.616Z,100.00
2023-04-19T03:59:16.917Z,100.00
2023-04-19T04:01:45.228Z,100.00
2023-04-19T04:04:14.025Z,100.00
2023-04-19T04:06:42.514Z,100.00
2023-04-19T04:09:10.515Z,100.00
2023-04-19T04:11:38.506Z,100.00
2023-04-19T04:14:07.254Z,100.00
2023-04-19T04:16:37.791Z,100.00
2023-04-19T04:19:06.196Z,100.00
2023-04-19T04:21:36.060Z,100.00
2023-04-19T04:24:05.565Z,100.00
2023-04-19T04:26:53.864Z,100.00
2023-04-19T04:29:27.316Z,100.00
2023-04-19T04:31:57.786Z,100.00
2023-04-19T04:34:29.673Z,100.00
2023-04-19T04:37:04.463Z,100.00
2023-04-19T04:39:35.457Z,100.00
2023-04-19T04:42:08.988Z,100.00
2023-04-19T04:44:37.460Z,100.00
2023-04-19T04:47:06.011Z,100.00
2023-04-19T04:49:38.704Z,100.00
2023-04-19T04:52:08.832Z,100.00
2023-04-19T04:54:42.976Z,100.00
2023-04-19T04:57:19.135Z,100.00
2023-04-19T04:59:48.449Z,100.00
2023-04-19T05:02:17.392Z,100.00
2023-04-19T05:04:46.665Z,100.00
2023-04-19T05:07:14.737Z,100.00
2023-04-19T05:09:43.130Z,100.00
2023-04-19T05:12:11.768Z,100.00
2023-04-19T05:14:39.794Z,100.00
2023-04-19T05:17:07.981Z,100.00
2023-04-19T05:19:36.308Z,100.00
2023-04-19T05:22:07.212Z,100.00
2023-04-19T05:24:37.184Z,100.00
2023-04-19T05:27:06.744Z,100.00
2023-04-19T05:29:35.024Z,100.00
2023-04-19T05:32:03.163Z,100.00
2023-04-19T05:34:34.882Z,100.00
2023-04-19T05:37:04.102Z,100.00
2023-04-19T05:39:32.834Z,100.00
2023-04-19T05:42:01.941Z,100.00
2023-04-19T05:44:30.513Z,100.00
2023-04-19T05:46:58.586Z,100.00
2023-04-19T05:49:49.821Z,100.00
2023-04-19T05:52:22.344Z,100.00
2023-04-19T05:54:54.182Z,100.00
2023-04-19T05:57:22.205Z,100.00
2023-04-19T05:59:50.824Z,100.00
2023-04-19T06:02:28.683Z,100.00
2023-04-19T06:05:02.729Z,100.00
2023-04-19T06:07:42.857Z,100.00
2023-04-19T06:10:15.468Z,100.00
2023-04-19T06:12:43.665Z,100.00
2023-04-19T06:15:12.037Z,100.00
2023-04-19T06:17:40.816Z,100.00
2023-04-19T06:20:10.249Z,100.00
2023-04-19T06:22:43.712Z,100.00
2023-04-19T06:25:12.026Z,100.00
2023-04-19T06:27:40.133Z,100.00
2023-04-19T06:30:08.415Z,100.00
2023-04-19T06:32:36.690Z,100.00
2023-04-19T06:35:06.595Z,100.00
2023-04-19T06:37:34.918Z,100.00
2023-04-19T06:40:05.082Z,100.00
2023-04-19T06:42:34.438Z,100.00
2023-04-19T06:45:04.499Z,100.00
2023-04-19T06:47:35.581Z,100.00
2023-04-19T06:50:04.244Z,100.00
2023-04-19T06:52:32.521Z,100.00
2023-04-19T06:55:03.870Z,100.00
2023-04-19T06:57:31.889Z,100.00
2023-04-19T07:00:00.322Z,100.00
2023-04-19T07:02:28.603Z,100.00
2023-04-19T07:04:57.042Z,100.00
2023-04-19T07:07:25.326Z,100.00
2023-04-19T07:09:53.412Z,100.00
2023-04-19T07:12:21.856Z,100.00
2023-04-19T07:14:49.861Z,100.00
2023-04-19T07:17:18.830Z,100.00
2023-04-19T07:19:48.968Z,100.00
2023-04-19T07:22:17.044Z,99.81
2023-04-19T07:24:45.230Z,98.35
2023-04-19T07:27:14.576Z,98.69
2023-04-19T07:29:42.998Z,97.78
2023-04-19T07:32:13.875Z,98.07
2023-04-19T07:34:42.644Z,96.27
2023-04-19T07:37:10.684Z,96.95
2023-04-19T07:39:39.675Z,95.26
2023-04-19T07:42:13.546Z,94.23
2023-04-19T07:44:41.568Z,93.65
2023-04-19T07:47:12.650Z,91.75
2023-04-19T07:49:40.670Z,91.26
2023-04-19T07:52:11.756Z,89.87
2023-04-19T07:54:39.866Z,88.88
2023-04-19T07:57:07.933Z,89.30
2023-04-19T07:59:36.393Z,89.48
2023-04-19T08:02:04.647Z,88.83
2023-04-19T08:04:33.305Z,88.23
2023-04-19T08:07:04.170Z,88.73
2023-04-19T08:09:34.648Z,84.89
2023-04-19T08:12:02.780Z,83.58
2023-04-19T08:14:37.717Z,83.00
2023-04-19T08:17:25.284Z,81.80
2023-04-19T08:19:55.051Z,79.50
2023-04-19T08:22:23.121Z,79.93
2023-04-19T08:24:52.175Z,80.75
2023-04-19T08:27:22.062Z,80.29
2023-04-19T08:29:50.400Z,79.25
2023-04-19T08:32:18.587Z,77.54
2023-04-19T08:34:46.654Z,76.58
2023-04-19T08:37:14.916Z,75.44
2023-04-19T08:39:42.921Z,75.69
2023-04-19T08:42:24.561Z,73.10
2023-04-19T08:45:23.400Z,71.90
2023-04-19T08:47:58.702Z,72.44
2023-04-19T08:50:34.557Z,71.24
2023-04-19T08:55:59.077Z,70.83
2023-04-19T08:58:46.626Z,69.81
2023-04-19T09:04:03.350Z,71.11
2023-04-19T09:06:39.001Z,69.14
2023-04-19T09:09:28.827Z,65.89
2023-04-19T09:12:02.446Z,63.97
2023-04-19T09:14:30.877Z,63.90
2023-04-19T09:17:17.465Z,62.90
2023-04-19T09:19:47.600Z,60.76
2023-04-19T09:22:15.963Z,59.72
2023-04-19T09:27:34.063Z,58.41
2023-04-19T09:30:03.360Z,58.07
2023-04-19T09:32:55.231Z,55.96
2023-04-19T09:35:23.398Z,53.51
2023-04-19T09:38:06.426Z,53.13
2023-04-19T09:40:35.386Z,52.64
2023-04-19T09:45:45.261Z,49.84
2023-04-19T09:48:13.361Z,49.67
2023-04-19T09:51:05.001Z,49.39
2023-04-19T09:53:35.743Z,48.94
2023-04-19T09:56:06.378Z,48.00
2023-04-19T09:58:48.989Z,48.44
2023-04-19T10:01:19.430Z,49.02
2023-04-19T10:03:49.542Z,50.07
2023-04-19T10:08:50.572Z,50.78
2023-04-19T10:11:22.897Z,51.26
2023-04-19T10:13:53.175Z,51.89
2023-04-19T10:16:21.442Z,52.72
2023-04-19T10:18:50.282Z,53.61
2023-04-19T10:21:18.733Z,53.24
2023-04-19T10:23:46.894Z,53.21
2023-04-19T10:26:14.928Z,53.42
2023-04-19T10:28:43.028Z,53.43
2023-04-19T10:31:14.052Z,52.33
2023-04-19T10:33:42.160Z,51.79
2023-04-19T10:36:11.798Z,50.73
2023-04-19T10:38:44.698Z,49.46
2023-04-19T10:41:16.413Z,48.72
2023-04-19T10:43:47.134Z,47.72
2023-04-19T10:46:16.586Z,47.38
2023-04-19T10:48:58.072Z,45.98
2023-04-19T10:51:39.561Z,46.18
2023-04-19T10:54:08.657Z,47.03
2023-04-19T10:59:02.927Z,47.81
2023-04-19T11:01:45.773Z,47.16
2023-04-19T11:04:23.639Z,47.12
2023-04-19T11:06:54.506Z,47.66
2023-04-19T11:09:26.712Z,48.63
2023-04-19T11:11:59.146Z,48.32
2023-04-19T11:14:27.499Z,48.45
2023-04-19T11:16:55.861Z,48.96
2023-04-19T11:19:24.083Z,48.32
2023-04-19T11:21:52.173Z,47.46
2023-04-19T11:24:20.910Z,46.87
2023-04-19T11:26:48.979Z,45.68
2023-04-19T11:29:17.361Z,45.93
2023-04-19T11:31:46.736Z,45.75
2023-04-19T11:34:15.351Z,45.41
2023-04-19T11:36:53.024Z,45.65
2023-04-19T11:39:21.963Z,45.98
2023-04-19T11:41:50.019Z,45.19
2023-04-19T11:44:20.591Z,45.83
2023-04-19T11:47:03.745Z,46.14
2023-04-19T11:49:33.762Z,46.18
2023-04-19T11:52:05.629Z,45.84
2023-04-19T11:54:34.096Z,46.98
2023-04-19T11:57:08.827Z,47.89
2023-04-19T11:59:37.358Z,49.33
2023-04-19T12:02:07.101Z,50.15
2023-04-19T12:04:35.709Z,51.07
2023-04-19T12:07:05.285Z,52.39
2023-04-19T12:09:35.731Z,53.75
2023-04-19T12:12:04.027Z,54.93
2023-04-19T12:14:32.340Z,56.10
2023-04-19T12:17:14.070Z,57.26
2023-04-19T12:19:44.022Z,59.03
2023-04-19T12:22:16.533Z,60.62
2023-04-19T12:24:44.599Z,62.12
2023-04-19T12:27:12.691Z,63.44
2023-04-19T12:29:41.084Z,64.61
2023-04-19T12:32:10.482Z,65.44
2023-04-19T12:34:39.290Z,66.42
2023-04-19T12:37:07.377Z,67.05
2023-04-19T12:39:36.317Z,68.04
2023-04-19T12:42:06.136Z,69.85
2023-04-19T12:44:35.132Z,71.50
2023-04-19T12:47:03.429Z,73.13
2023-04-19T12:49:32.352Z,76.10
2023-04-19T12:52:00.639Z,79.16
2023-04-19T12:54:29.240Z,83.50
2023-04-19T12:56:57.796Z,87.58
2023-04-19T12:59:26.208Z,91.76
2023-04-19T13:01:54.427Z,95.48
2023-04-19T13:04:23.578Z,96.90
2023-04-19T13:06:52.200Z,98.82
2023-04-19T13:09:20.225Z,99.90
2023-04-19T13:11:52.036Z,100.00
2023-04-19T13:14:20.128Z,100.00
2023-04-19T13:16:48.302Z,100.00
2023-04-19T13:19:16.342Z,100.00
2023-04-19T13:21:44.397Z,100.00
2023-04-19T13:24:12.364Z,100.00
2023-04-19T13:26:40.892Z,100.00
2023-04-19T13:29:08.899Z,100.00
2023-04-19T13:31:38.355Z,100.00
2023-04-19T13:34:10.172Z,100.00
2023-04-19T13:36:39.227Z,100.00
2023-04-19T13:39:08.498Z,100.00
2023-04-19T13:41:38.481Z,100.00
2023-04-19T13:44:09.885Z,100.00
2023-04-19T13:46:38.013Z,100.00
2023-04-19T13:49:06.420Z,100.00
2023-04-19T13:51:42.785Z,100.00
2023-04-19T13:54:18.832Z,100.00
2023-04-19T13:56:49.845Z,100.00
2023-04-19T13:59:19.733Z,100.00
2023-04-19T14:01:50.227Z,100.00
2023-04-19T14:04:19.588Z,100.00
2023-04-19T14:06:54.487Z,100.00
2023-04-19T14:09:22.567Z,100.00
2023-04-19T14:11:51.350Z,100.00
2023-04-19T14:14:19.471Z,100.00
2023-04-19T14:16:47.797Z,100.00
2023-04-19T14:19:15.861Z,100.00
2023-04-19T14:21:43.809Z,100.00
2023-04-19T14:24:11.903Z,100.00
2023-04-19T14:26:39.964Z,100.00
2023-04-19T14:29:08.034Z,100.00
2023-04-19T14:31:36.104Z,100.00
2023-04-19T14:34:07.665Z,100.00
2023-04-19T14:36:35.655Z,100.00
2023-04-19T14:39:03.837Z,100.00
2023-04-19T14:41:31.854Z,100.00
2023-04-19T14:44:00.082Z,100.00
2023-04-19T14:46:28.210Z,100.00
2023-04-19T14:48:57.311Z,100.00
2023-04-19T14:51:37.904Z,100.00
2023-04-19T14:54:05.926Z,100.00
2023-04-19T14:56:34.173Z,100.00
2023-04-19T14:59:02.514Z,100.00
2023-04-19T15:01:30.590Z,100.00
2023-04-19T15:03:59.246Z,100.00
2023-04-19T15:06:27.569Z,100.00
2023-04-19T15:08:55.582Z,100.00
2023-04-19T15:11:23.900Z,100.00
2023-04-19T15:13:51.977Z,100.00
2023-04-19T15:16:20.013Z,100.00
2023-04-19T15:18:48.017Z,100.00
2023-04-19T15:21:24.216Z,100.00
2023-04-19T15:23:52.787Z,100.00
2023-04-19T15:26:21.826Z,100.00
2023-04-19T15:28:50.214Z,100.00
2023-04-19T15:31:18.480Z,99.64
2023-04-19T15:33:47.105Z,98.36
2023-04-19T15:36:15.272Z,96.04
2023-04-19T15:38:44.152Z,95.90
2023-04-19T15:41:15.644Z,95.54
2023-04-19T15:43:43.746Z,96.04
2023-04-19T15:46:15.084Z,96.70
2023-04-19T15:48:44.150Z,96.88
2023-04-19T15:51:12.256Z,97.45
2023-04-19T15:53:40.662Z,98.25
2023-04-19T15:56:11.850Z,99.12
2023-04-19T15:58:41.345Z,100.00
2023-04-19T16:01:13.154Z,100.00
2023-04-19T16:03:41.775Z,100.00
2023-04-19T16:06:09.971Z,100.00
2023-04-19T16:08:38.028Z,100.00
2023-04-19T16:11:06.118Z,100.00
2023-04-19T16:13:34.624Z,100.00
2023-04-19T16:16:05.191Z,100.00
2023-04-19T16:18:33.407Z,100.00
2023-04-19T16:21:01.403Z,100.00
2023-04-19T16:23:29.668Z,100.00
2023-04-19T16:25:57.778Z,100.00
2023-04-19T16:28:26.021Z,100.00
2023-04-19T16:30:54.108Z,100.00
2023-04-19T16:33:22.685Z,100.00
2023-04-19T16:35:54.253Z,100.00
2023-04-19T16:38:22.510Z,100.00
2023-04-19T16:40:51.423Z,100.00
2023-04-19T16:43:21.074Z,100.00
2023-04-19T16:45:49.241Z,100.00
2023-04-19T16:48:18.109Z,100.00
2023-04-19T16:50:46.641Z,100.00
2023-04-19T16:53:14.764Z,100.00
2023-04-19T16:55:42.853Z,100.00
2023-04-19T16:58:10.860Z,100.00
2023-04-19T17:00:38.836Z,100.00
2023-04-19T17:03:09.341Z,100.00
2023-04-19T17:05:37.667Z,100.00
2023-04-19T17:08:06.016Z,100.00
2023-04-19T17:10:34.030Z,100.00
2023-04-19T17:13:02.164Z,100.00
2023-04-19T17:15:31.696Z,100.00
2023-04-19T17:17:59.811Z,100.00
2023-04-19T17:20:27.978Z,100.00
2023-04-19T17:22:56.383Z,100.00
2023-04-19T17:25:24.542Z,100.00
2023-04-19T17:27:52.848Z,100.00
2023-04-19T17:30:24.020Z,100.00
2023-04-19T17:32:52.337Z,100.00
2023-04-19T17:35:20.533Z,100.00
2023-04-19T17:37:48.727Z,100.00
2023-04-19T17:40:16.761Z,100.00
2023-04-19T17:42:44.924Z,100.00
2023-04-19T17:45:16.673Z,100.00
2023-04-19T17:47:44.960Z,100.00
2023-04-19T17:50:13.560Z,100.00
2023-04-19T17:52:41.622Z,100.00
2023-04-19T17:55:09.838Z,100.00
2023-04-19T17:57:38.367Z,100.00
2023-04-19T18:00:07.967Z,100.00
2023-04-19T18:02:40.869Z,100.00
2023-04-19T18:05:09.352Z,100.00
2023-04-19T18:07:37.976Z,100.00
2023-04-19T18:10:06.717Z,100.00
2023-04-19T18:12:36.774Z,100.00
2023-04-19T18:15:06.425Z,100.00
2023-04-19T18:17:35.918Z,100.00
2023-04-19T18:20:05.529Z,100.00
2023-04-19T18:22:33.770Z,100.00
2023-04-19T18:25:01.806Z,100.00
2023-04-19T18:27:32.287Z,100.00
2023-04-19T18:30:03.906Z,100.00
2023-04-19T18:32:32.928Z,100.00
2023-04-19T18:35:03.333Z,100.00
2023-04-19T18:37:31.615Z,100.00
2023-04-19T18:40:00.001Z,100.00
2023-04-19T18:42:28.251Z,100.00
2023-04-19T18:44:56.275Z,100.00
2023-04-19T18:47:27.154Z,100.00
2023-04-19T18:50:03.297Z,100.00
2023-04-19T18:52:34.998Z,100.00
2023-04-19T18:55:04.670Z,100.00
2023-04-19T18:57:35.761Z,100.00
2023-04-19T19:00:06.276Z,100.00
2023-04-19T19:02:37.690Z,100.00
2023-04-19T19:05:08.928Z,100.00
2023-04-19T19:07:38.204Z,100.00
2023-04-19T19:10:18.157Z,100.00
2023-04-19T19:12:49.508Z,100.00
2023-04-19T19:15:18.320Z,100.00
2023-04-19T19:17:49.659Z,100.00
2023-04-19T19:20:19.568Z,100.00
2023-04-19T19:22:48.476Z,100.00
2023-04-19T19:25:16.690Z,100.00
2023-04-19T19:28:02.778Z,100.00
2023-04-19T19:30:34.766Z,100.00
2023-04-19T19:33:04.781Z,100.00
2023-04-19T19:35:33.654Z,100.00
2023-04-19T19:38:01.775Z,100.00
2023-04-19T19:40:32.530Z,100.00
2023-04-19T19:43:02.624Z,100.00
2023-04-19T19:45:31.592Z,100.00
2023-04-19T19:48:00.679Z,100.00
2023-04-19T19:53:01.614Z,100.00
2023-04-19T19:55:30.555Z,100.00
2023-04-19T20:03:01.890Z,100.00
2023-04-19T20:05:31.021Z,100.00
2023-04-19T20:08:11.830Z,100.00
2023-04-19T20:10:41.791Z,100.00
2023-04-19T20:13:10.061Z,100.00
2023-04-19T20:15:39.465Z,100.00
2023-04-19T20:18:08.420Z,100.00
2023-04-19T20:20:37.060Z,100.00
2023-04-19T20:23:08.252Z,100.00
2023-04-19T20:25:36.475Z,100.00
2023-04-19T20:28:05.023Z,100.00
2023-04-19T20:30:33.241Z,100.00
2023-04-19T20:33:01.422Z,100.00
2023-04-19T20:35:30.528Z,100.00
2023-04-19T20:38:02.830Z,100.00
2023-04-19T20:40:32.351Z,100.00
2023-04-19T20:58:54.491Z,100.00
2023-04-19T21:01:24.370Z,100.00
2023-04-19T21:03:52.923Z,100.00
2023-04-19T21:06:23.344Z,100.00
2023-04-19T21:08:51.469Z,100.00
2023-04-19T21:11:19.869Z,100.00
2023-04-19T21:13:49.606Z,100.00
2023-04-19T21:16:17.824Z,100.00
2023-04-19T21:18:45.879Z,100.00
2023-04-19T21:21:13.963Z,100.00
2023-04-19T21:23:42.020Z,100.00
2023-04-19T21:26:10.433Z,100.00
2023-04-19T21:28:38.669Z,100.00
2023-04-19T21:31:06.704Z,100.00
2023-04-19T21:33:34.835Z,100.00
2023-04-19T21:36:03.536Z,100.00
2023-04-19T21:38:31.730Z,100.00
2023-04-19T21:40:59.940Z,100.00
2023-04-19T21:43:28.032Z,100.00
2023-04-19T21:45:56.087Z,100.00
2023-04-19T21:48:24.302Z,100.00
2023-04-19T21:50:52.314Z,100.00
2023-04-19T21:53:21.311Z,100.00
2023-04-19T21:55:50.387Z,100.00
2023-04-19T21:58:19.006Z,100.00
2023-04-19T22:00:47.143Z,100.00
2023-04-19T22:03:16.081Z,100.00
2023-04-19T22:05:46.182Z,100.00
2023-04-19T22:08:14.237Z,100.00
2023-04-19T22:10:42.698Z,100.00
2023-04-19T22:13:10.891Z,100.00
2023-04-19T22:15:38.962Z,100.00
2023-04-19T22:18:08.318Z,100.00
2023-04-19T22:20:36.904Z,100.00
2023-04-19T22:23:05.058Z,100.00
2023-04-19T22:25:33.293Z,100.00
2023-04-19T22:28:01.382Z,100.00
2023-04-19T22:30:29.762Z,100.00
2023-04-19T22:32:57.744Z,100.00
2023-04-19T22:35:26.193Z,100.00
2023-04-19T22:37:54.225Z,100.00
2023-04-19T22:40:22.419Z,100.00
2023-04-19T22:42:50.483Z,100.00
2023-04-19T22:45:18.662Z,100.00
2023-04-19T22:47:46.779Z,100.00
2023-04-19T22:50:15.139Z,100.00
2023-04-19T22:52:44.759Z,100.00
2023-04-19T22:55:12.849Z,100.00
2023-04-19T22:57:43.159Z,100.00
2023-04-19T23:00:11.734Z,100.00
2023-04-19T23:02:40.127Z,100.00
2023-04-19T23:05:09.140Z,100.00
2023-04-19T23:07:40.181Z,100.00
2023-04-19T23:10:10.431Z,100.00
2023-04-19T23:12:40.125Z,100.00
2023-04-19T23:15:10.705Z,100.00
2023-04-19T23:17:39.736Z,100.00
2023-04-19T23:20:11.250Z,100.00
2023-04-19T23:22:39.917Z,100.00
2023-04-19T23:25:08.938Z,100.00
2023-04-19T23:27:37.895Z,100.00
2023-04-19T23:30:07.893Z,100.00
2023-04-19T23:32:36.551Z,100.00
2023-04-19T23:35:04.997Z,100.00
2023-04-19T23:37:33.302Z,100.00
2023-04-19T23:40:01.697Z,100.00
2023-04-19T23:42:30.288Z,100.00
2023-04-19T23:44:58.384Z,100.00
2023-04-19T23:47:26.539Z,100.00
2023-04-19T23:49:54.829Z,100.00
2023-04-19T23:52:22.917Z,100.00
2023-04-19T23:54:51.341Z,100.00
2023-04-19T23:57:19.983Z,100.00
2023-04-19T23:59:48.402Z,100.00
